Time;durP1;ratioP1;P1;durP2;ratioP2;P2;SDS_P1;SDS_P2;PMS_P1;PMS_P2;Temp;Humidity;BMP_temperature;BMP_pressure;BME280_temperature;BME280_humidity;BME280_pressure;Samples;Min_cycle;Max_cycle;Signal;HPM_P1;HPM_P2
2023/05/05 00:02:44;;;;;;;16.77;13.37;;;;;;;;;;10513821;28;20396;-86
2023/05/05 00:07:48;;;;;;;17.33;14.37;;;;;;;;;;10509725;28;20437;-86
2023/05/05 00:12:49;;;;;;;16.77;13.63;;;;;;;;;;10512844;28;20403;-87
2023/05/05 00:17:51;;;;;;;18.55;14.13;;;;;;;;;;10510677;28;21112;-86
2023/05/05 00:22:54;;;;;;;17.77;14.40;;;;;;;;;;10513393;28;20845;-86
2023/05/05 00:27:56;;;;;;;18.48;14.30;;;;;;;;;;10511194;28;20428;-86
2023/05/05 00:32:58;;;;;;;17.77;13.80;;;;;;;;;;10513119;28;20950;-86
2023/05/05 00:38:01;;;;;;;17.17;14.20;;;;;;;;;;10517366;28;20485;-86
2023/05/05 00:43:04;;;;;;;17.80;14.23;;;;;;;;;;10517263;28;20433;-87
2023/05/05 00:48:06;;;;;;;19.70;14.55;;;;;;;;;;10491963;28;20434;-86
2023/05/05 00:53:09;;;;;;;17.55;13.93;;;;;;;;;;10510557;28;20407;-87
2023/05/05 00:58:12;;;;;;;17.10;14.03;;;;;;;;;;10527156;28;20626;-85
2023/05/05 01:03:14;;;;;;;19.63;14.50;;;;;;;;;;10518748;28;20402;-87
2023/05/05 01:08:34;;;;;;;17.90;14.27;;;;;;;;;;10521148;28;20423;-86
2023/05/05 01:13:47;;;;;;;18.75;14.13;;;;;;;;;;10519081;28;20402;-86
2023/05/05 01:18:56;;;;;;;18.67;14.63;;;;;;;;;;10521849;28;20515;-87
2023/05/05 01:24:15;;;;;;;18.93;14.77;;;;;;;;;;10517321;28;20813;-86
2023/05/05 01:29:35;;;;;;;17.90;14.45;;;;;;;;;;10516301;28;20421;-87
2023/05/05 01:34:44;;;;;;;18.27;14.27;;;;;;;;;;10498709;28;20406;-84
2023/05/05 01:39:49;;;;;;;20.50;14.57;;;;;;;;;;10497314;28;20754;-85
2023/05/05 01:44:53;;;;;;;18.52;14.40;;;;;;;;;;10517817;28;20484;-87
2023/05/05 01:49:56;;;;;;;16.25;13.60;;;;;;;;;;10523256;28;20795;-87
2023/05/05 01:54:59;;;;;;;18.15;14.05;;;;;;;;;;10514749;28;20481;-87
2023/05/05 02:00:04;;;;;;;17.90;14.40;;;;;;;;;;10513012;28;20397;-87
2023/05/05 02:05:07;;;;;;;18.83;14.73;;;;;;;;;;10514109;28;20408;-86
2023/05/05 02:10:12;;;;;;;15.68;13.57;;;;;;;;;;10515438;28;20420;-87
2023/05/05 02:15:15;;;;;;;18.75;15.13;;;;;;;;;;10516899;28;20873;-86
2023/05/05 02:20:19;;;;;;;19.17;14.85;;;;;;;;;;10517846;28;20457;-86
2023/05/05 02:25:21;;;;;;;18.70;14.10;;;;;;;;;;10517041;28;20963;-87
2023/05/05 02:30:24;;;;;;;18.57;14.17;;;;;;;;;;10515203;28;20424;-86
2023/05/05 02:35:34;;;;;;;17.88;14.77;;;;;;;;;;10516412;28;20762;-87
2023/05/05 02:40:38;;;;;;;20.35;14.38;;;;;;;;;;10514450;28;20394;-86
2023/05/05 02:45:39;;;;;;;18.60;14.23;;;;;;;;;;10515012;28;20431;-86
2023/05/05 02:50:43;;;;;;;18.13;13.60;;;;;;;;;;10516861;28;20522;-86
2023/05/05 02:55:54;;;;;;;17.10;13.18;;;;;;;;;;10520709;28;20406;-86
2023/05/05 03:01:03;;;;;;;17.00;13.57;;;;;;;;;;10520005;28;20437;-86
2023/05/05 03:06:13;;;;;;;16.02;13.02;;;;;;;;;;10514902;28;20407;-86
2023/05/05 03:11:23;;;;;;;18.43;13.83;;;;;;;;;;10514802;28;20422;-86
2023/05/05 03:16:27;;;;;;;17.15;13.30;;;;;;;;;;10512756;28;20406;-86
2023/05/05 03:21:32;;;;;;;16.27;12.70;;;;;;;;;;10515548;28;20396;-86
2023/05/05 03:26:34;;;;;;;17.45;13.60;;;;;;;;;;10513247;28;20408;-86
2023/05/05 03:31:36;;;;;;;17.55;13.68;;;;;;;;;;10514950;28;20400;-86
2023/05/05 03:36:39;;;;;;;16.83;13.38;;;;;;;;;;10512728;28;20413;-86
2023/05/05 03:41:41;;;;;;;17.27;13.60;;;;;;;;;;10514926;28;20439;-86
2023/05/05 03:46:42;;;;;;;15.07;12.93;;;;;;;;;;10511513;28;20404;-85
2023/05/05 03:51:46;;;;;;;16.63;12.57;;;;;;;;;;10513708;28;20878;-86
2023/05/05 03:56:47;;;;;;;16.13;12.63;;;;;;;;;;10510807;28;20404;-86
2023/05/05 04:01:49;;;;;;;16.53;13.10;;;;;;;;;;10513234;28;20404;-87
2023/05/05 04:06:52;;;;;;;20.70;15.50;;;;;;;;;;10524027;28;20523;-86
2023/05/05 04:11:54;;;;;;;23.20;17.27;;;;;;;;;;10512993;28;20406;-87
2023/05/05 04:16:56;;;;;;;26.63;19.05;;;;;;;;;;10512975;28;20410;-86
2023/05/05 04:21:59;;;;;;;27.08;19.80;;;;;;;;;;10511134;28;20483;-86
2023/05/05 04:27:02;;;;;;;25.70;18.88;;;;;;;;;;10514577;28;20409;-86
2023/05/05 04:32:04;;;;;;;21.55;17.05;;;;;;;;;;10515054;28;20404;-86
2023/05/05 04:37:07;;;;;;;23.00;17.00;;;;;;;;;;10520288;28;20484;-86
2023/05/05 04:42:09;;;;;;;21.13;16.60;;;;;;;;;;10521878;28;20415;-86
2023/05/05 04:47:10;;;;;;;19.25;15.07;;;;;;;;;;10524823;28;21167;-86
2023/05/05 04:52:14;;;;;;;19.57;14.57;;;;;;;;;;10531201;28;20408;-85
2023/05/05 04:57:15;;;;;;;17.60;13.38;;;;;;;;;;10525400;28;20465;-87
2023/05/05 05:02:17;;;;;;;18.37;15.07;;;;;;;;;;10529490;28;20773;-86
2023/05/05 05:07:20;;;;;;;15.18;12.65;;;;;;;;;;10534075;28;20783;-87
2023/05/05 05:12:22;;;;;;;15.63;11.65;;;;;;;;;;10523127;28;20759;-86
2023/05/05 05:17:25;;;;;;;14.27;10.80;;;;;;;;;;10515657;28;21040;-86
2023/05/05 05:22:28;;;;;;;16.40;12.07;;;;;;;;;;10524681;28;20453;-86
2023/05/05 05:27:30;;;;;;;16.33;11.90;;;;;;;;;;10523298;28;20447;-85
2023/05/05 05:32:32;;;;;;;16.98;11.55;;;;;;;;;;10537287;28;20422;-86
2023/05/05 05:37:35;;;;;;;15.43;11.27;;;;;;;;;;10537256;28;20397;-86
2023/05/05 05:42:38;;;;;;;14.82;11.85;;;;;;;;;;10533418;28;20400;-86
2023/05/05 05:47:40;;;;;;;15.27;12.13;;;;;;;;;;10528972;28;20434;-85
2023/05/05 05:52:43;;;;;;;13.02;10.88;;;;;;;;;;10517753;28;20420;-87
2023/05/05 05:57:45;;;;;;;13.17;10.87;;;;;;;;;;10511704;28;20478;-85
2023/05/05 06:02:47;;;;;;;14.90;11.53;;;;;;;;;;10521452;28;20412;-88
2023/05/05 06:07:50;;;;;;;15.00;11.52;;;;;;;;;;10519744;28;20531;-86
2023/05/05 06:12:52;;;;;;;14.32;11.70;;;;;;;;;;10523701;28;20397;-86
2023/05/05 06:17:53;;;;;;;13.53;10.90;;;;;;;;;;10528059;28;20408;-86
2023/05/05 06:22:59;;;;;;;13.60;10.37;;;;;;;;;;10553683;28;20455;-87
2023/05/05 06:28:01;;;;;;;15.47;10.40;;;;;;;;;;10525877;28;20461;-85
2023/05/05 06:33:02;;;;;;;14.87;11.00;;;;;;;;;;10520887;28;20400;-84
2023/05/05 06:38:06;;;;;;;14.23;10.88;;;;;;;;;;10516691;28;20417;-85
2023/05/05 06:43:07;;;;;;;13.90;11.07;;;;;;;;;;10518737;28;20765;-85
2023/05/05 06:48:09;;;;;;;15.07;11.10;;;;;;;;;;10519924;28;20442;-85
2023/05/05 06:53:12;;;;;;;16.50;10.70;;;;;;;;;;10524402;28;20404;-85
2023/05/05 06:58:14;;;;;;;19.20;10.48;;;;;;;;;;10522653;28;20420;-85
2023/05/05 07:03:16;;;;;;;14.20;10.32;;;;;;;;;;10529347;28;20499;-85
2023/05/05 07:08:19;;;;;;;13.40;10.90;;;;;;;;;;10528627;28;20432;-86
2023/05/05 07:13:21;;;;;;;17.38;11.73;;;;;;;;;;10527240;28;20416;-86
2023/05/05 07:18:23;;;;;;;15.40;10.07;;;;;;;;;;10529256;28;20405;-86
2023/05/05 07:23:26;;;;;;;13.63;9.70;;;;;;;;;;10529072;28;20919;-86
2023/05/05 07:28:28;;;;;;;12.93;10.13;;;;;;;;;;10528662;28;20432;-86
2023/05/05 07:33:30;;;;;;;12.93;10.23;;;;;;;;;;10528395;28;20411;-85
2023/05/05 07:38:33;;;;;;;12.52;9.48;;;;;;;;;;10528363;28;20404;-85
2023/05/05 07:43:35;;;;;;;20.70;10.20;;;;;;;;;;10526977;28;20767;-85
2023/05/05 07:48:39;;;;;;;11.40;9.33;;;;;;;;;;10527388;28;20530;-86
2023/05/05 07:53:43;;;;;;;13.30;9.60;;;;;;;;;;10528601;28;20410;-85
2023/05/05 07:58:45;;;;;;;12.45;9.25;;;;;;;;;;10527551;28;20406;-85
2023/05/05 08:03:47;;;;;;;14.57;10.68;;;;;;;;;;10526936;28;20474;-85
2023/05/05 08:08:52;;;;;;;13.60;10.88;;;;;;;;;;10523308;28;20525;-86
2023/05/05 08:13:53;;;;;;;20.40;13.63;;;;;;;;;;10526845;28;21087;-85
2023/05/05 08:18:55;;;;;;;12.57;10.27;;;;;;;;;;10555713;28;20479;-85
2023/05/05 08:23:58;;;;;;;21.63;14.18;;;;;;;;;;10528148;28;20418;-84
2023/05/05 08:29:00;;;;;;;13.63;10.10;;;;;;;;;;10527756;28;20435;-86
2023/05/05 08:34:02;;;;;;;15.07;11.20;;;;;;;;;;10527248;28;20412;-86
2023/05/05 08:39:06;;;;;;;18.80;13.03;;;;;;;;;;10526510;28;20396;-85
2023/05/05 08:44:08;;;;;;;16.30;11.45;;;;;;;;;;10526648;28;21354;-87
2023/05/05 08:49:14;;;;;;;15.25;11.90;;;;;;;;;;10524630;28;20424;-86
2023/05/05 08:54:19;;;;;;;13.20;9.87;;;;;;;;;;10525445;28;20416;-85
2023/05/05 08:59:24;;;;;;;13.00;9.07;;;;;;;;;;10527087;28;20815;-85
2023/05/05 09:04:25;;;;;;;10.63;9.38;;;;;;;;;;10525914;28;20407;-84
2023/05/05 09:09:30;;;;;;;13.10;10.37;;;;;;;;;;10525392;28;20427;-84
2023/05/05 09:14:31;;;;;;;12.93;10.93;;;;;;;;;;10525527;28;21142;-84
2023/05/05 09:19:33;;;;;;;11.48;9.00;;;;;;;;;;10529360;28;20406;-85
2023/05/05 09:24:36;;;;;;;13.90;9.45;;;;;;;;;;10529298;28;20423;-84
2023/05/05 09:29:38;;;;;;;14.00;10.48;;;;;;;;;;10526392;28;20895;-85
2023/05/05 09:34:40;;;;;;;13.95;9.55;;;;;;;;;;10530695;28;20388;-85
2023/05/05 09:39:53;;;;;;;12.02;9.18;;;;;;;;;;10530679;28;20412;-84
2023/05/05 09:44:56;;;;;;;12.95;9.63;;;;;;;;;;10534308;28;20911;-84
2023/05/05 09:49:59;;;;;;;12.17;8.50;;;;;;;;;;10539193;28;20427;-84
2023/05/05 09:55:02;;;;;;;10.23;8.18;;;;;;;;;;10536000;28;20567;-84
2023/05/05 10:00:05;;;;;;;10.20;8.02;;;;;;;;;;10531564;28;20407;-84
2023/05/05 10:05:09;;;;;;;11.98;9.43;;;;;;;;;;10532039;28;20970;-86
2023/05/05 10:10:14;;;;;;;10.07;8.65;;;;;;;;;;10534953;28;20416;-85
2023/05/05 10:15:16;;;;;;;10.93;8.65;;;;;;;;;;10549539;28;20436;-85
2023/05/05 10:20:19;;;;;;;11.25;8.82;;;;;;;;;;10531297;28;20407;-86
2023/05/05 10:25:29;;;;;;;13.55;9.23;;;;;;;;;;10529063;28;20411;-86
2023/05/05 10:30:32;;;;;;;10.70;7.90;;;;;;;;;;10512863;28;20423;-84
2023/05/05 10:35:37;;;;;;;11.35;9.32;;;;;;;;;;10516503;28;20405;-86
2023/05/05 10:40:44;;;;;;;10.50;8.00;;;;;;;;;;10518373;28;20894;-86
2023/05/05 10:45:46;;;;;;;9.18;7.40;;;;;;;;;;10515700;28;20397;-86
2023/05/05 10:50:52;;;;;;;10.20;8.50;;;;;;;;;;10516129;28;20420;-84
2023/05/05 10:56:06;;;;;;;10.43;7.93;;;;;;;;;;10513901;28;20505;-85
2023/05/05 11:01:08;;;;;;;8.77;7.55;;;;;;;;;;10514074;28;21061;-85
2023/05/05 11:06:14;;;;;;;9.27;7.55;;;;;;;;;;10516878;28;20456;-85
2023/05/05 11:11:17;;;;;;;8.30;6.95;;;;;;;;;;10506660;28;20433;-85
2023/05/05 11:16:46;;;;;;;8.75;7.10;;;;;;;;;;10502042;28;20409;-84
2023/05/05 11:22:00;;;;;;;8.82;7.45;;;;;;;;;;10500112;28;20400;-85
2023/05/05 11:27:03;;;;;;;9.77;8.33;;;;;;;;;;10498636;28;20412;-85
2023/05/05 11:32:11;;;;;;;10.75;8.30;;;;;;;;;;10501876;28;20421;-86
2023/05/05 11:37:13;;;;;;;11.37;8.67;;;;;;;;;;10500702;28;20905;-87
2023/05/05 11:42:24;;;;;;;11.75;8.70;;;;;;;;;;10498343;28;20404;-86
2023/05/05 11:47:32;;;;;;;8.98;7.78;;;;;;;;;;10493870;28;20406;-83
2023/05/05 11:52:34;;;;;;;9.65;8.15;;;;;;;;;;10511455;28;20424;-86
2023/05/05 11:57:37;;;;;;;11.55;8.93;;;;;;;;;;10516826;28;20414;-86
2023/05/05 12:02:39;;;;;;;10.73;8.30;;;;;;;;;;10501716;28;20406;-86
2023/05/05 12:07:41;;;;;;;8.97;7.77;;;;;;;;;;10543363;28;20416;-84
2023/05/05 12:12:44;;;;;;;9.57;7.27;;;;;;;;;;10520605;28;20416;-86
2023/05/05 12:17:46;;;;;;;7.95;6.80;;;;;;;;;;10510161;28;20888;-85
2023/05/05 12:22:48;;;;;;;6.75;5.97;;;;;;;;;;10500668;28;20414;-88
2023/05/05 12:27:53;;;;;;;7.60;5.30;;;;;;;;;;10506877;28;20412;-84
2023/05/05 12:33:01;;;;;;;11.47;6.07;;;;;;;;;;10512727;28;20453;-86
2023/05/05 12:38:02;;;;;;;6.97;6.20;;;;;;;;;;10517391;28;20430;-86
2023/05/05 12:43:06;;;;;;;6.82;5.85;;;;;;;;;;10519681;28;20409;-87
2023/05/05 12:48:23;;;;;;;48.80;24.23;;;;;;;;;;10518972;28;21060;-86
2023/05/05 12:53:25;;;;;;;7.25;5.82;;;;;;;;;;10507259;28;20422;-87
2023/05/05 12:58:30;;;;;;;5.82;5.13;;;;;;;;;;10508018;28;20437;-87
2023/05/05 13:03:32;;;;;;;7.57;5.28;;;;;;;;;;10518175;28;20509;-86
2023/05/05 13:08:43;;;;;;;6.97;5.78;;;;;;;;;;10511470;28;20406;-86
2023/05/05 13:13:46;;;;;;;5.60;5.03;;;;;;;;;;10514067;28;20406;-86
2023/05/05 13:18:49;;;;;;;5.60;4.70;;;;;;;;;;10511600;28;20493;-86
2023/05/05 13:23:51;;;;;;;5.30;4.88;;;;;;;;;;10512715;28;20440;-87
2023/05/05 13:28:54;;;;;;;6.20;5.27;;;;;;;;;;10521557;28;20500;-87
2023/05/05 13:33:56;;;;;;;5.93;5.32;;;;;;;;;;10513636;28;20488;-88
2023/05/05 13:38:57;;;;;;;5.33;4.60;;;;;;;;;;10514768;28;20405;-88
2023/05/05 13:44:00;;;;;;;6.95;5.38;;;;;;;;;;10515169;28;20405;-88
2023/05/05 13:49:02;;;;;;;5.78;4.90;;;;;;;;;;10511768;28;20974;-87
2023/05/05 13:54:05;;;;;;;5.25;4.60;;;;;;;;;;10514019;28;20684;-88
2023/05/05 13:59:08;;;;;;;4.95;4.40;;;;;;;;;;10530579;28;20416;-86
2023/05/05 14:04:10;;;;;;;5.30;4.80;;;;;;;;;;10528193;28;20403;-88
2023/05/05 14:09:12;;;;;;;4.73;4.23;;;;;;;;;;10516182;28;20412;-88
2023/05/05 14:14:15;;;;;;;5.80;4.53;;;;;;;;;;10512279;28;20940;-88
2023/05/05 14:19:16;;;;;;;5.90;4.60;;;;;;;;;;10512599;28;20496;-88
2023/05/05 14:24:18;;;;;;;5.95;4.60;;;;;;;;;;10511661;28;20408;-88
2023/05/05 14:29:22;;;;;;;5.53;4.40;;;;;;;;;;10512779;28;20418;-86
2023/05/05 14:34:23;;;;;;;4.50;4.10;;;;;;;;;;10530774;28;20974;-87
2023/05/05 14:39:26;;;;;;;5.05;4.65;;;;;;;;;;10534374;28;20496;-87
2023/05/05 14:44:29;;;;;;;5.38;4.88;;;;;;;;;;10526975;28;20396;-87
2023/05/05 14:49:31;;;;;;;5.47;4.97;;;;;;;;;;10526965;28;20441;-87
2023/05/05 14:54:32;;;;;;;4.70;4.30;;;;;;;;;;10517120;28;20404;-85
2023/05/05 14:59:36;;;;;;;5.38;4.30;;;;;;;;;;10507781;28;20481;-86
2023/05/05 15:04:37;;;;;;;4.80;4.33;;;;;;;;;;10511665;28;20483;-86
2023/05/05 15:09:39;;;;;;;4.32;3.92;;;;;;;;;;10504446;28;20404;-86
2023/05/05 15:14:42;;;;;;;4.87;4.37;;;;;;;;;;10501458;28;20414;-87
2023/05/05 15:19:44;;;;;;;5.57;4.25;;;;;;;;;;10481724;28;20425;-86
2023/05/05 15:24:46;;;;;;;5.57;4.60;;;;;;;;;;10503940;28;20413;-85
2023/05/05 15:29:49;;;;;;;4.80;4.18;;;;;;;;;;10504975;28;20750;-86
2023/05/05 15:34:51;;;;;;;4.10;3.67;;;;;;;;;;10507346;28;20404;-85
2023/05/05 15:39:54;;;;;;;5.97;4.90;;;;;;;;;;10506724;28;20404;-87
2023/05/05 15:44:58;;;;;;;5.70;3.90;;;;;;;;;;10510682;28;20488;-86
2023/05/05 15:50:00;;;;;;;5.30;4.80;;;;;;;;;;10506926;28;20426;-86
2023/05/05 15:55:02;;;;;;;5.03;4.00;;;;;;;;;;10526915;28;20907;-86
2023/05/05 16:00:07;;;;;;;5.53;4.53;;;;;;;;;;10506347;28;20409;-86
2023/05/05 16:05:09;;;;;;;4.97;4.47;;;;;;;;;;10507571;28;20843;-87
2023/05/05 16:10:11;;;;;;;4.50;4.10;;;;;;;;;;10506074;28;20495;-86
2023/05/05 16:15:14;;;;;;;5.10;4.00;;;;;;;;;;10516628;28;20411;-88
2023/05/05 16:20:16;;;;;;;6.03;4.07;;;;;;;;;;10517914;28;20404;-86
2023/05/05 16:25:18;;;;;;;4.82;4.10;;;;;;;;;;10508454;28;20409;-87
2023/05/05 16:30:21;;;;;;;6.30;4.13;;;;;;;;;;10511085;28;20432;-86
2023/05/05 16:35:23;;;;;;;4.72;4.20;;;;;;;;;;10500329;28;20499;-87
2023/05/05 16:40:25;;;;;;;4.63;4.20;;;;;;;;;;10505499;28;20416;-86
2023/05/05 16:45:28;;;;;;;5.13;4.63;;;;;;;;;;10504365;28;20909;-86
2023/05/05 16:50:30;;;;;;;4.93;4.53;;;;;;;;;;10501078;28;20552;-86
2023/05/05 16:55:32;;;;;;;4.80;4.22;;;;;;;;;;10505079;28;20440;-87
2023/05/05 17:00:35;;;;;;;7.80;4.40;;;;;;;;;;10505437;28;20459;-87
2023/05/05 17:05:37;;;;;;;4.68;4.05;;;;;;;;;;10496589;28;20412;-87
2023/05/05 17:10:38;;;;;;;4.27;3.87;;;;;;;;;;10502096;28;20417;-87
2023/05/05 17:15:43;;;;;;;4.20;3.80;;;;;;;;;;10498552;28;20511;-86
2023/05/05 17:20:44;;;;;;;5.87;4.07;;;;;;;;;;10502278;28;20536;-87
2023/05/05 17:25:46;;;;;;;5.43;3.83;;;;;;;;;;10515728;28;20408;-87
2023/05/05 17:30:49;;;;;;;4.60;4.03;;;;;;;;;;10514809;28;20916;-86
2023/05/05 17:35:51;;;;;;;5.13;3.95;;;;;;;;;;10512363;28;20414;-87
2023/05/05 17:40:53;;;;;;;5.10;3.90;;;;;;;;;;10506430;28;20412;-87
2023/05/05 17:45:56;;;;;;;5.47;4.33;;;;;;;;;;10505724;28;20521;-87
2023/05/05 17:50:58;;;;;;;5.25;3.92;;;;;;;;;;10506772;28;20519;-86
2023/05/05 17:56:00;;;;;;;5.47;4.60;;;;;;;;;;10517900;28;20408;-86
2023/05/05 18:01:03;;;;;;;6.28;4.25;;;;;;;;;;10520485;28;20408;-86
2023/05/05 18:06:05;;;;;;;6.07;4.25;;;;;;;;;;10523564;28;20408;-86
2023/05/05 18:11:07;;;;;;;6.28;4.70;;;;;;;;;;10521637;28;20422;-86
2023/05/05 18:16:10;;;;;;;5.55;4.45;;;;;;;;;;10522481;28;20533;-85
2023/05/05 18:21:12;;;;;;;5.10;4.30;;;;;;;;;;10524769;28;20436;-86
2023/05/05 18:26:13;;;;;;;5.30;4.80;;;;;;;;;;10519395;28;20415;-85
2023/05/05 18:31:16;;;;;;;6.50;4.78;;;;;;;;;;10522938;28;20916;-86
2023/05/05 18:36:18;;;;;;;5.63;4.75;;;;;;;;;;10523205;28;20416;-87
2023/05/05 18:41:20;;;;;;;6.18;5.07;;;;;;;;;;10527349;28;20967;-91
2023/05/05 18:46:23;;;;;;;6.30;4.97;;;;;;;;;;10521134;28;20408;-87
2023/05/05 18:51:25;;;;;;;6.70;5.00;;;;;;;;;;10524639;28;20427;-87
2023/05/05 18:56:27;;;;;;;5.93;5.32;;;;;;;;;;10527431;28;21001;-88
2023/05/05 19:01:30;;;;;;;6.20;5.60;;;;;;;;;;10516730;28;20415;-86
2023/05/05 19:06:32;;;;;;;7.78;6.10;;;;;;;;;;10506592;28;20420;-85
2023/05/05 19:11:34;;;;;;;8.70;6.45;;;;;;;;;;10511218;28;20437;-87
2023/05/05 19:16:38;;;;;;;8.18;5.95;;;;;;;;;;10513650;28;20408;-86
2023/05/05 19:21:39;;;;;;;8.00;6.32;;;;;;;;;;10520951;28;20413;-85
2023/05/05 19:26:42;;;;;;;8.48;6.00;;;;;;;;;;10516905;28;20771;-86
2023/05/05 19:31:46;;;;;;;8.70;6.72;;;;;;;;;;10516749;28;20421;-88
2023/05/05 19:36:48;;;;;;;8.37;6.53;;;;;;;;;;10512938;28;20453;-85
2023/05/05 19:41:49;;;;;;;7.85;6.20;;;;;;;;;;10528778;28;20431;-86
2023/05/05 19:46:53;;;;;;;7.38;6.60;;;;;;;;;;10527983;28;20408;-85
2023/05/05 19:51:56;;;;;;;7.72;6.78;;;;;;;;;;10520058;28;20847;-84
2023/05/05 19:56:58;;;;;;;7.22;6.50;;;;;;;;;;10522381;28;20887;-86
2023/05/05 20:02:01;;;;;;;7.82;6.28;;;;;;;;;;10518968;28;20487;-84
2023/05/05 20:07:03;;;;;;;8.65;6.93;;;;;;;;;;10523345;28;20419;-86
2023/05/05 20:12:06;;;;;;;8.43;7.20;;;;;;;;;;10522079;28;20478;-85
2023/05/05 20:17:10;;;;;;;8.27;7.28;;;;;;;;;;10521354;28;20422;-85
2023/05/05 20:22:12;;;;;;;9.50;7.35;;;;;;;;;;10513189;28;20410;-86
2023/05/05 20:27:14;;;;;;;8.77;7.82;;;;;;;;;;10516003;28;20416;-86
2023/05/05 20:32:19;;;;;;;9.55;7.78;;;;;;;;;;10517012;28;20923;-86
2023/05/05 20:37:21;;;;;;;9.57;8.18;;;;;;;;;;10519837;28;20479;-86
2023/05/05 20:42:24;;;;;;;9.98;8.68;;;;;;;;;;10520866;28;20426;-86
2023/05/05 20:47:27;;;;;;;9.05;7.95;;;;;;;;;;10519062;28;20416;-85
2023/05/05 20:52:29;;;;;;;11.48;7.50;;;;;;;;;;10516484;28;20416;-85
2023/05/05 20:57:31;;;;;;;9.55;8.10;;;;;;;;;;10508488;28;20773;-86
2023/05/05 21:02:34;;;;;;;9.33;8.00;;;;;;;;;;10501511;28;20400;-86
2023/05/05 21:07:36;;;;;;;9.45;8.10;;;;;;;;;;10501991;28;20485;-84
2023/05/05 21:12:39;;;;;;;10.10;7.57;;;;;;;;;;10505066;28;20503;-85
2023/05/05 21:17:42;;;;;;;10.60;7.50;;;;;;;;;;10511828;28;20416;-86
2023/05/05 21:22:44;;;;;;;9.80;7.57;;;;;;;;;;10490329;28;20422;-87
2023/05/05 21:27:46;;;;;;;10.18;7.50;;;;;;;;;;10508860;28;20765;-87
2023/05/05 21:32:50;;;;;;;10.63;7.70;;;;;;;;;;10511072;28;20416;-87
2023/05/05 21:37:51;;;;;;;9.00;6.83;;;;;;;;;;10511141;28;20414;-86
2023/05/05 21:42:54;;;;;;;11.13;7.67;;;;;;;;;;10516506;28;20841;-84
2023/05/05 21:47:57;;;;;;;11.48;7.82;;;;;;;;;;10519307;28;20515;-86
2023/05/05 21:52:59;;;;;;;9.60;7.90;;;;;;;;;;10529576;28;20424;-86
2023/05/05 21:58:01;;;;;;;9.07;7.63;;;;;;;;;;10523049;28;20981;-86
2023/05/05 22:03:04;;;;;;;9.77;7.83;;;;;;;;;;10515557;28;20408;-86
2023/05/05 22:08:06;;;;;;;11.63;7.90;;;;;;;;;;10515794;28;20424;-87
2023/05/05 22:13:09;;;;;;;8.75;7.18;;;;;;;;;;10514641;28;20899;-87
2023/05/05 22:18:12;;;;;;;9.43;7.68;;;;;;;;;;10516004;28;20505;-87
2023/05/05 22:23:15;;;;;;;9.40;7.93;;;;;;;;;;10513718;28;20400;-86
2023/05/05 22:28:16;;;;;;;10.50;8.00;;;;;;;;;;10514783;28;20497;-86
2023/05/05 22:33:20;;;;;;;10.03;7.93;;;;;;;;;;10516910;28;20432;-86
2023/05/05 22:38:22;;;;;;;11.57;7.87;;;;;;;;;;10514389;28;20494;-87
2023/05/05 22:43:24;;;;;;;10.40;8.37;;;;;;;;;;10514626;28;20429;-86
2023/05/05 22:48:27;;;;;;;11.03;8.27;;;;;;;;;;10514645;28;20412;-86
2023/05/05 22:53:28;;;;;;;9.73;7.78;;;;;;;;;;10514024;28;20444;-87
2023/05/05 22:58:30;;;;;;;12.90;8.30;;;;;;;;;;10512985;28;20483;-86
2023/05/05 23:03:33;;;;;;;11.25;8.40;;;;;;;;;;10513450;28;20896;-86
2023/05/05 23:08:35;;;;;;;10.20;8.30;;;;;;;;;;10441846;22;20435;-86
2023/05/05 23:13:37;;;;;;;10.55;8.18;;;;;;;;;;10389738;28;20432;-86
2023/05/05 23:18:40;;;;;;;10.05;8.00;;;;;;;;;;10389012;28;20411;-86
2023/05/05 23:23:42;;;;;;;10.93;8.57;;;;;;;;;;10389696;28;20405;-86
2023/05/05 23:28:43;;;;;;;10.37;8.87;;;;;;;;;;10388657;28;20418;-86
2023/05/05 23:33:47;;;;;;;13.47;9.23;;;;;;;;;;10389623;28;20429;-86
2023/05/05 23:38:48;;;;;;;11.68;8.93;;;;;;;;;;10387111;28;20414;-86
2023/05/05 23:43:50;;;;;;;13.07;10.80;;;;;;;;;;10390266;28;20429;-86
2023/05/05 23:48:54;;;;;;;15.50;11.37;;;;;;;;;;10387051;28;20403;-86
2023/05/05 23:53:57;;;;;;;16.00;12.43;;;;;;;;;;10388769;28;20426;-86
2023/05/05 23:58:59;;;;;;;17.63;12.60;;;;;;;;;;10385912;28;20410;-85
